Welcome to our Virtual Airline
Sign-in:

Flight MFC36851

  • Submitted By: Georg Werderitsch
  • Departure Airport: Port Williams SPB (KPR)
  • Arrival Airport: Kitoi Bay SPB (KKB)
  • Aircraft: DHC2 BEAVERT (N002MM_TW)
  • Flight Time: 00.19.42
  • Date Submitted: 2019/03/09
  • Route: NO STOPS
  • Status: Accepted
Flight Details
Gross Revenue:
(5 load / $ 42.00 per unit
$ 210.00
Fuel Cost:
(18.1437 fuel used @ 5.1 / unit)
$ 92.53

Additional Log Information:

View Log

FS[12:31] ----- Flight Opened -----
FS[12:31] Cigar Box - 1.1.4.0
FS[12:31] FS: FSX
FS[12:31] FSUIPC: v4,973
FS[12:31] Flight Number: MFC36851
FS[12:31] FS Aircraft: DHC-2A N001MM New Misty Amphibian
FS[12:31] FS Model: DHC2
FS[12:31] FS Type: DeHavilland
FS[12:31] Departure: KPR
FS[12:31] Arrival: KKB
FS[12:31] Flight Level: 3500
FS[12:31] Flight Type: H
FS[12:31] Passengers: 5
FS[12:31] FOB: 570 lbs
FS[12:31] Gate: n/a
FS[12:31] NOTE: Parking Brake Ignored
FS[12:31] Crash Detection: Disabled
FS[12:31] Crash Detection Aircraft: Disabled
FS[12:31] Engines: 1 Piston
FS[12:31] NOTE: Boarding has started
FS[12:31] Autopilot: Engaged
FS[12:31] AGL: 6 ft
FS[12:31] AMSL: 6 ft
FS[12:31] Flaps: Position 2
FS[12:31] Light Data: Beacon ON
FS[12:31] Main Door Closed
FS[12:31] COM1: 128.30
FS[12:31] COM2: 127.80
FS[12:31] Transponder: 1200
FS[12:31] NAV1: 113.70
FS[12:31] NAV2: 110.60
FS[12:31] ADF1: 284.0
FS[12:31] ADF2: 240.0
FS[12:31] Navigation Mode: NAV
FS[12:31] Engine 1: Started
FS[12:32] Flaps: Position 1
FS[12:32] NOTE: Taxi started
FS[12:32] NOTE: ----- TAKE OFF -----
FS[12:32] GS: 64 knots
FS[12:32] TAS: 71 knots
FS[12:32] IAS: 70 knots
FS[12:32] VS: 147 fpm
FS[12:32] FOB: 569 lbs
FS[12:32] Heading: 281°
FS[12:32] Pitch: 14°
FS[12:32] Bank: -1°
FS[12:32] Aircraft Weight: 4339,64 lbs
FS[12:32] Nearest Airport: KPR
FS[12:32] Distance: 0,49 miles
FS[12:32] Runway: ???
FS[12:32] Ground Surface: Water
FS[12:32] Ground Condition: Normal
FS[12:32] NOTE: Weather Report
FS[12:32] Wind Heading: 339°
FS[12:32] Wind Speed: 15 knots
FS[12:32] OAT: 17° C
FS[12:32] TAT: 18° C
FS[12:32] Precipitation: None
FS[12:32] Dew Point: 11° C
FS[12:32] Visibility: 29 miles
FS[12:32] METAR: KPRB 091653Z AUTO 00000KT 10SM CLR 05/03 A3005 RMK AO2 SLP177 T00500028 $KPRC 091653Z 14011G18KT 10SM CLR 06/M04 A2998 RMK AO2 SLP132 T00561044KPRG 091715Z AUTO 10013G18KT 2 1/2SM VCTSRA OVC004 04/04 A2975 RMK AO2 LTG DSNT SE SW AND NW P0003 T00420036KPRN 091656Z AUTO 18008KT 10SM OVC012 21/16 A3003 RMK AO2 SLP167 T02110161KPRO 091735Z AUTO 10019KT 10SM OVC005 02/02 A2936 RMK AO2 T00150015KPRS 091715Z AUTO 26010G16KT 10SM CLR 18/M01 A3003 RMK AO2 T01821013KPRX 091656Z AUTO 26023G30KT 10SM CLR 20/06 A2972 RMK AO2 PK WND 26030/1655 SLP075 T02000056
FS[12:32] NOTE: Climb started
FS[12:32] Flaps: Position 0
FS[12:32] GS: 60 knots
FS[12:32] TAS: 69 knots
FS[12:32] IAS: 68 knots
FS[12:32] VS: 487 fpm
FS[12:33] View Mode: Virtual Cockpit
FS[12:42] Flaps: Position 1
FS[12:42] GS: 110 knots
FS[12:42] TAS: 104 knots
FS[12:42] IAS: 102 knots
FS[12:42] VS: -801 fpm
FS[12:42] Flaps: Position 2
FS[12:42] GS: 95 knots
FS[12:42] TAS: 90 knots
FS[12:42] IAS: 89 knots
FS[12:42] VS: -1082 fpm
FS[12:42] Flaps: Position 1
FS[12:42] GS: 93 knots
FS[12:42] TAS: 89 knots
FS[12:42] IAS: 87 knots
FS[12:42] VS: -1118 fpm
FS[12:42] Flaps: Position 3
FS[12:42] GS: 87 knots
FS[12:42] TAS: 82 knots
FS[12:42] IAS: 80 knots
FS[12:42] VS: -328 fpm
FS[12:42] Flaps: Position 0
FS[12:42] GS: 79 knots
FS[12:42] TAS: 74 knots
FS[12:42] IAS: 73 knots
FS[12:42] VS: 760 fpm
FS[12:43] Flaps: Position 1
FS[12:43] GS: 87 knots
FS[12:43] TAS: 95 knots
FS[12:43] IAS: 94 knots
FS[12:43] VS: -357 fpm
FS[12:44] Flaps: Position 2
FS[12:44] GS: 69 knots
FS[12:44] TAS: 80 knots
FS[12:44] IAS: 79 knots
FS[12:44] VS: -733 fpm
FS[12:44] Flaps: Position 1
FS[12:44] GS: 60 knots
FS[12:44] TAS: 68 knots
FS[12:44] IAS: 67 knots
FS[12:44] VS: -1108 fpm
FS[12:44] NOTE: ----- LANDED -----
FS[12:44] Landing Rate: -192,24 fpm
FS[12:44] GS: 56 knots
FS[12:44] TAS: 68 knots
FS[12:44] IAS: 67 knots
FS[12:44] VS: -183 fpm
FS[12:44] FOB: 532 lbs
FS[12:44] Heading: 10°
FS[12:44] Pitch: 3°
FS[12:44] Bank: 0°
FS[12:44] Aircraft Weight: 4302,70 lbs
FS[12:44] Nearest Airport: KKB
FS[12:44] Distance: 0,38 miles
FS[12:44] Runway: ???
FS[12:44] Ground Surface: Water
FS[12:44] Ground Condition: Normal
FS[12:44] NOTE: Weather Report
FS[12:44] Wind Heading: 331°
FS[12:44] Wind Speed: 15 knots
FS[12:44] OAT: 17° C
FS[12:44] TAT: 18° C
FS[12:44] Precipitation: None
FS[12:44] Dew Point: 11° C
FS[12:44] Visibility: 29 miles
FS[12:44] METAR: No METAR available for KKB.
FS[12:44] View Mode: Virtual Cockpit
FS[12:44] Flaps: Position 0
FS[12:44] NOTE: Taxi started
FS[12:47] Engine 1: Stopped
FS[12:47] Gate: n/a
FS[12:47] NOTE: Flight Completed
FS[12:47] FS Aircraft: DHC-2A N001MM New Misty Amphibian
FS[12:47] FS Model: DHC2
FS[12:47] FS Type: DeHavilland
FS[12:47] FOB: 530 lbs
FS[12:47] Fuel Used: 40 lbs
FS[12:47] Flight Time: 00:19:42
FS[12:47] Flight Time (Dawn): 00:00:00
FS[12:47] Flight Time (Day): 00:19:42
FS[12:47] Flight Time (Dusk): 00:00:00
FS[12:47] Flight Time (Night): 00:00:00
FS[12:47] Total Landings: 1
FS[12:47] MaxSim Rate: 0x
FS[12:47] Cigar Box - 1.1.4.0
FS[12:47] ----- Flight Closed -----

Route Map